ROMMA est une association bénévole à but non lucratif. Votre soutien est indispensable : ADHERER à ROMMA ou FAIRE un DON

Eygliers - (05, Hautes-Alpes)

Guillestrois (965 m)   Longitude: 6° 38' 04" E   Latitude: 44° 40' 37" N Station partenaire n°53
 

Détail journalier du     <<     >>

Température Precipitation Humidité Vent Dir Rafale Dir. rafale Ensol.
Heure (°C) (mm) (%) (km/h) (km/h) (min)
01:00 -0.40941ENE6NNE0
02:00 -0.70943NE11ESE0
03:00 -1.10941ENE6ENE0
04:00 -1.20934ENE11E0
05:00 -1.50933NNE10ESE0
06:00 -1.80932NNE10E0
07:00 -2.30931NE6NE0
08:00 -2.10914NNE11NNE0
09:00 -2.00913N6N5
10:00 0.60843NNE11NNE55
11:00 2.80734NNO11NO45
12:00 5.60634O8O60
13:00 7.50514OSO11SO60
14:00 6.60626O13ONO50
15:00 6.80573NO10NO30
16:00 6.306402SE20
17:00 4.30732ENE10NNO0
18:00 2.81.4875NNE16NE0
19:00 1.22.2925SE11SE0
20:00 1.41.2934E15E0
21:00 1.70932ENE8ENE0
22:00 1.70934NNE10NE0
23:00 1.20933NE6E0
minuit 1.60.2946S19SSO0

Graphique du 25-11-2018

 

Serveur OMMA